Istvan Botka

Olheiro-Chefe - Debrecen
3 Dez 2028
Domingo
Processo

Personalidade

Adaptabilidade (10) Ambição (11) Controvérsia (11) Lealdade (14) Pressão (2) Profissionalismo (6) Espírito Esportivo (13) Temperamento (16)

Perfil

Estilo de Treinamento Democrático
Licença Continental A
Determinação 12
Gestão de Pessoas 7
Motivação 4
Disciplina 7
Satisfação no Trabalho
57%
Fadiga
0%
Função Olheiro-Chefe
Salário 12.4K p/s
Contrato 14.03.2029

Desempenho

Comportamento Bom
Eficácia do Treinamento
21%
Desenvolvimento do Jogador
55%
Prevenção de Lesões
45%
Implementação Tática
50%

Eventos Recentes

Participou de uma reunião de recrutamento agora
Recomendou um alvo de transferência agora
Recomendou um alvo de transferência agora
Recomendou um alvo de transferência agora
Recomendou um alvo de transferência agora
Recomendou um alvo de transferência 7d atrás
Recomendou um alvo de transferência 7d atrás
Recomendou um alvo de transferência 7d atrás

Monitorando agora

100
Jogador Clube Status Habilidade Confiança Observado Última observação Último voto
Gad Mathews Nairobi United Ativo 95 / 89 40% 1 18.09.2028 -
Fabrizio Correa Juventud Ativo 120 / 123 40% 1 18.09.2028 -
Matías Budiño Colón Ativo 116 / 117 40% 1 18.09.2028 -
César Carrizo Mineros de Guayana Ativo 110 / 108 40% 1 13.09.2028 -
Abuchi Okeke Kano Pillars Ativo 100 / 95 40% 1 13.09.2028 -
Ignacio Suárez Cerro Ativo 104 / 114 40% 1 13.09.2028 -
Mustapha Lawal Shooting Stars Ativo 110 / 102 40% 2 12.09.2028 -
Juan Pablo Rial San Telmo Ativo 107 / 115 40% 1 12.09.2028 -
Emiliano González Almagro Ativo 127 / 119 40% 1 12.09.2028 -
Chisom Chiaha Barau Ativo 88 / 91 40% 1 11.09.2028 -
Roberto Ramírez Godoy Cruz Ativo 107 / 120 40% 1 11.09.2028 -
Andrés Mehring Progreso Ativo 109 / 104 40% 1 11.09.2028 -
Francisco Casanova Cerrito Ativo 106 / 112 40% 1 10.09.2028 -
Nahuel Pezzini Arsenal Ativo 118 / 109 40% 1 10.09.2028 -
Beycker Velásquez Zamora Ativo 115 / 107 40% 1 10.09.2028 -
Alejo Medina Agropecuario Argentino Ativo 100 / 107 40% 1 06.09.2028 -
Luciano Jachfe Nueva Chicago Ativo 122 / 124 40% 1 06.09.2028 -
Brian Olivera Racing Ativo 115 / 111 40% 1 04.09.2028 -
Emilio Di Fulvio Colegiales Ativo 118 / 117 40% 1 04.09.2028 -
Andraž Šporar NK Celje Ativo 118 / 118 66% 1 07.08.2028 Aprovar
Kwame Opoku Western Sydney Wanderers Ativo 99 / 99 66% 1 07.08.2028 Aprovar
Dato Mchedlidze Tskhinvali Perdido 100 / 104 67% 1 01.06.2028 -
Ben Ahmed Kohili Paradou Perdido 102 / 109 66% 1 01.06.2028 -
Sebastián Cocimano Nueva Chicago Ativo 109 / 113 40% 6 30.12.2027 -
Umar Ada Nasarawa United Ativo 104 / 103 40% 3 30.12.2027 -
Daniel Barrea Godoy Cruz Ativo 131 / 128 40% 7 30.12.2027 -
José Barreto Quilmes Ativo 118 / 117 40% 3 29.12.2027 -
Timothy Zechariah Rivers United Ativo 101 / 94 40% 7 29.12.2027 -
Augustine Nwaorisa Enyimba Ativo 97 / 100 40% 2 28.12.2027 -
Arthur Sales Maritzburg United Ativo 113 / 111 40% 1 28.12.2027 -
Ismail Sarki Niger Tornadoes Ativo 87 / 90 40% 8 27.12.2027 -
James Emo Rangers International Ativo 83 / 95 40% 4 27.12.2027 -
Favio Cabral Mitre Ativo 124 / 120 40% 11 25.12.2027 -
Juan David Rueda Alianza Petrolera Ativo 105 / 116 40% 5 25.12.2027 -
Marco Miori Alvarado Ativo 108 / 117 40% 4 25.12.2027 -
Stanley Amon Bayelsa United Ativo 95 / 95 40% 6 23.12.2027 -
Chineme Chinonso Ikorodu City Ativo 84 / 102 40% 5 23.12.2027 -
Emmanuel Jonas El-Kanemi Warriors Ativo 98 / 89 40% 4 22.12.2027 -
Uche Sabastine Warri Wolves Ativo 88 / 80 40% 5 18.12.2027 -
Oke Kayode Bendel Insurance Ativo 97 / 90 40% 3 17.12.2027 -
Hassan Beja AFC Leopards Ativo 82 / 88 40% 4 16.12.2027 -
Santiago Sala Güemes Ativo 121 / 104 40% 2 10.12.2027 -
Facundo Krüger Temperley Ativo 106 / 122 40% 4 09.12.2027 -
Samson Olasupo Remo Stars Ativo 91 / 95 40% 7 06.12.2027 -
Maren Kefas Plateau United Ativo 104 / 90 40% 5 02.12.2027 -
Abubakar Garba Nasarawa United Ativo 89 / 91 40% 5 28.11.2027 -
Okardi Inikurogha Bayelsa United Ativo 94 / 94 40% 3 26.11.2027 -
Josephat Lopaga Kakamega Homeboyz Ativo 98 / 94 40% 3 25.11.2027 -
Franco Ayunta Temperley Ativo 118 / 115 40% 1 21.11.2027 -
Lucas Pedraza Defensores Unidos Ativo 93 / 99 40% 1 21.11.2027 -
Augusto Berrondo Tristán Suárez Ativo 106 / 102 40% 4 18.11.2027 -
Sagir Arce Saburtalo Ativo 91 / 98 40% 1 17.11.2027 -
Alfred Emoni Bandari Ativo 79 / 81 40% 1 13.11.2027 -
Genaro Rossi San Martín SJ Ativo 101 / 110 40% 1 13.11.2027 -
Luca Franco Arsenal Ativo 119 / 115 40% 4 11.11.2027 -
Kingsley Maduforo Enyimba Ativo 100 / 88 40% 5 11.11.2027 -
Alexander Díaz Deportivo Riestra Ativo 128 / 127 40% 2 07.11.2027 -
Chisom Orji Warri Wolves Ativo 89 / 84 40% 1 01.11.2027 -
Maclyn Biokpo Jenewari Rivers United Ativo 112 / 112 40% 1 29.10.2027 -
Hamed Abdulhameed El-Kanemi Warriors Ativo 73 / 84 40% 1 29.10.2027 -
Auwalu Ali Malam Kano Pillars Ativo 87 / 95 40% 1 24.10.2027 -
Terdoo Shimagande Niger Tornadoes Ativo 93 / 81 40% 1 23.10.2027 -
Jefry Zapata Aldosivi Ativo 108 / 113 40% 1 11.10.2027 -
Ibrahim Yahaya Barau Ativo 104 / 97 40% 1 04.10.2027 -
Georgy Arutyunyan Puskas Akademia Ativo 100 / 112 69% 1 02.08.2027 Aprovar
Fábio Tavares Burton Albion Ativo 95 / 105 40% 2 26.07.2027 -
Emanuele Scipioni Monopoli Ativo 107 / 111 40% 1 26.07.2027 -
Lorent Tolaj Plymouth Argyle Ativo 114 / 121 40% 2 24.07.2027 -
Marezi Portsmouth Ativo 130 / 131 40% 1 22.07.2027 -
Sam Bell Bristol City Ativo 122 / 120 40% 5 21.07.2027 -
Will Swan Bradford City Ativo 101 / 107 40% 1 21.07.2027 -
Mees Rijks Bristol Rovers Ativo 114 / 116 40% 1 20.07.2027 -
Stiven Shpendi Empoli Ativo 125 / 118 40% 1 19.07.2027 -
Calum Kavanagh Oldham Athletic Ativo 104 / 103 40% 1 19.07.2027 -
Josh Coburn Millwall Ativo 130 / 123 40% 2 17.07.2027 -
Dale Taylor Blackpool Ativo 111 / 121 40% 1 16.07.2027 -
Luca Moro Padova Ativo 120 / 120 40% 1 15.07.2027 -
Aune Heggebø West Bromwich Albion Ativo 139 / 128 40% 2 13.07.2027 -
Malik Mothersille Stockport County Ativo 124 / 115 40% 1 13.07.2027 -
Callum Stead Barnet Ativo 91 / 98 40% 2 12.07.2027 -
Christian Saydee Wigan Athletic Ativo 111 / 112 40% 1 12.07.2027 -
Tyrese Campbell Sheffield United Ativo 127 / 130 40% 1 03.07.2027 -
Giorgi Kvernadze Frosinone Ativo 126 / 124 40% 2 01.07.2027 -
Tyreece Campbell Charlton Athletic Ativo 112 / 119 40% 1 28.06.2027 -
Tyrese Shade Burton Albion Ativo 96 / 97 40% 1 22.06.2027 -
Stephen Amankona Aduana Stars Ativo 95 / 88 40% 1 15.06.2027 -
Sam Greenwood Bristol City Ativo 128 / 124 40% 2 14.06.2027 -
Santiago Pierotti Lecce Ativo 138 / 135 40% 1 14.06.2027 -
Danny Butterworth Accrington Stanley Ativo 96 / 87 40% 1 11.06.2027 -
Daniel Nikolic Haladas Ativo 96 / 104 65% 1 06.06.2027 Aprovar
Ákos Zuigeber Honved Ativo 100 / 102 62% 1 18.01.2027 Aprovar
Dardan Shabanhaxhaj Rubin Ativo 110 / 117 40% 1 31.12.2026 -
Armstrong Oko-Flex Levski Ativo 128 / 116 40% 1 31.12.2026 -
Maximiliano Duarte Independiente Ativo 104 / 95 40% 1 05.09.2026 -
Mauro Carrizo Atlético Tucumán Ativo 103 / 109 40% 1 04.09.2026 -
Agustín Obregón River Plate Ativo 111 / 128 40% 1 04.09.2026 -
Ezra Mayers West Ham United Ativo 115 / 115 40% 1 02.09.2026 -
Roman Dixon Walsall Ativo 101 / 108 40% 1 24.08.2026 -
Gonzalo Escudero Racing Club Ativo 92 / 118 40% 1 24.08.2026 -
Ivan Šaponjić Diosgyor Ativo 94 / 93 62% 1 17.08.2026 Aprovar